Time;durP1;ratioP1;P1;durP2;ratioP2;P2;SDS_P1;SDS_P2;PMS_P1;PMS_P2;Temp;Humidity;BMP_temperature;BMP_pressure;BME280_temperature;BME280_humidity;BME280_pressure;Samples;Min_cycle;Max_cycle;Signal;HPM_P1;HPM_P2
2022/01/11 00:00:24;;;;;;;38.35;18.42;;;2.50;99.90;;;;;;5094902;28;20047;-82
2022/01/11 00:02:52;;;;;;;89.10;18.65;;;2.50;99.90;;;;;;5094098;28;20040;-82
2022/01/11 00:05:25;;;;;;;46.88;19.02;;;2.40;99.90;;;;;;5094066;28;20048;-82
2022/01/11 00:07:52;;;;;;;41.30;19.50;;;2.40;99.90;;;;;;5094455;28;20055;-81
2022/01/11 00:10:47;;;;;;;45.15;19.27;;;2.40;99.90;;;;;;5077716;28;20048;-81
2022/01/11 00:13:06;;;;;;;60.60;19.80;;;2.50;99.90;;;;;;5092920;28;20048;-81
2022/01/11 00:15:32;;;;;;;33.65;17.60;;;2.70;99.90;;;;;;5077567;28;20101;-81
2022/01/11 00:17:57;;;;;;;32.80;18.98;;;2.60;99.90;;;;;;5094142;28;20117;-82
2022/01/11 00:20:27;;;;;;;61.17;19.42;;;2.60;99.90;;;;;;5094059;28;20051;-81
2022/01/11 00:25:29;;;;;;;37.40;17.55;;;2.60;99.90;;;;;;5093838;28;20130;-81
2022/01/11 00:27:55;;;;;;;43.80;18.48;;;2.60;99.90;;;;;;5076253;28;20093;-81
2022/01/11 00:30:22;;;;;;;42.75;17.95;;;2.50;99.90;;;;;;5094007;28;20097;-81
2022/01/11 00:32:52;;;;;;;30.42;17.20;;;2.40;99.90;;;;;;5076838;28;20536;-81
2022/01/11 00:35:22;;;;;;;37.13;18.38;;;2.30;99.90;;;;;;5094622;28;20048;-81
2022/01/11 00:37:49;;;;;;;37.78;17.70;;;2.30;99.90;;;;;;5094408;28;20092;-81
2022/01/11 00:40:15;;;;;;;33.95;18.60;;;2.30;99.90;;;;;;5093820;28;20043;-81
2022/01/11 00:42:41;;;;;;;33.50;18.02;;;2.30;99.90;;;;;;5093442;28;20040;-81
2022/01/11 00:45:12;;;;;;;33.72;17.92;;;2.30;99.90;;;;;;5093471;28;20112;-81
2022/01/11 00:47:39;;;;;;;28.60;16.38;;;2.30;99.90;;;;;;5094295;28;20113;-82
2022/01/11 00:50:07;;;;;;;31.85;16.02;;;2.30;99.90;;;;;;5093764;28;20048;-81
2022/01/11 00:52:32;;;;;;;32.97;16.30;;;2.30;99.90;;;;;;5093597;28;20048;-81
2022/01/11 00:54:58;;;;;;;29.25;16.25;;;2.30;99.90;;;;;;5076751;28;20471;-81
2022/01/11 00:57:24;;;;;;;29.00;15.68;;;2.40;99.90;;;;;;5076643;28;20048;-81
2022/01/11 00:59:50;;;;;;;30.65;16.73;;;2.50;99.90;;;;;;5076945;28;20398;-81
2022/01/11 01:02:15;;;;;;;32.72;17.33;;;2.40;99.90;;;;;;5092706;28;20414;-81
2022/01/11 01:04:41;;;;;;;34.63;17.05;;;2.40;99.90;;;;;;5092831;28;20044;-81
2022/01/11 01:07:07;;;;;;;29.80;16.02;;;2.50;99.90;;;;;;5093367;28;20048;-81
2022/01/11 01:09:45;;;;;;;31.25;16.05;;;2.50;99.90;;;;;;5093282;28;20054;-81
2022/01/11 01:12:11;;;;;;;34.95;17.92;;;2.50;99.90;;;;;;5078353;28;20088;-81
2022/01/11 01:14:36;;;;;;;31.00;15.40;;;2.50;99.90;;;;;;5093329;28;20505;-81
2022/01/11 01:17:02;;;;;;;31.92;16.27;;;2.50;99.90;;;;;;5093100;28;20036;-82
2022/01/11 01:19:28;;;;;;;41.40;19.25;;;2.50;99.90;;;;;;5076264;28;20051;-81
2022/01/11 01:21:55;;;;;;;34.95;16.40;;;2.50;99.90;;;;;;5059670;28;20048;-81
2022/01/11 01:24:21;;;;;;;34.63;18.85;;;2.40;99.90;;;;;;5076168;28;20040;-81
2022/01/11 01:26:47;;;;;;;35.53;18.20;;;2.40;99.90;;;;;;5093057;28;20087;-81
2022/01/11 01:29:13;;;;;;;34.92;18.88;;;2.20;99.90;;;;;;5093050;28;20083;-81
2022/01/11 01:31:38;;;;;;;38.42;18.05;;;2.20;99.90;;;;;;5092517;28;20493;-81
2022/01/11 01:34:05;;;;;;;39.15;20.10;;;2.40;99.90;;;;;;5093393;28;20055;-81
2022/01/11 01:36:32;;;;;;;40.03;18.33;;;2.50;99.90;;;;;;5092985;28;20495;-81
2022/01/11 01:38:58;;;;;;;37.97;18.77;;;2.60;99.90;;;;;;5076685;28;20040;-81
2022/01/11 01:41:24;;;;;;;57.70;22.00;;;2.70;99.90;;;;;;5092884;28;20044;-81
2022/01/11 01:43:55;;;;;;;40.10;19.58;;;2.50;99.90;;;;;;5075788;28;20093;-81
2022/01/11 01:46:21;;;;;;;35.95;18.42;;;2.50;99.90;;;;;;5093312;28;20067;-81
2022/01/11 01:48:47;;;;;;;41.35;19.50;;;2.50;99.90;;;;;;5076010;28;20091;-81
2022/01/11 01:51:14;;;;;;;46.75;20.10;;;2.60;99.90;;;;;;5075674;28;20481;-81
2022/01/11 01:53:46;;;;;;;38.97;19.30;;;2.50;99.90;;;;;;5092967;28;20055;-81
2022/01/11 01:56:12;;;;;;;35.10;18.52;;;2.40;99.90;;;;;;5076212;28;20051;-81
2022/01/11 01:58:37;;;;;;;42.35;19.85;;;2.40;99.90;;;;;;5093514;28;20059;-81
2022/01/11 02:01:05;;;;;;;48.75;19.90;;;2.40;99.90;;;;;;5092670;28;20040;-81
2022/01/11 02:03:39;;;;;;;34.55;18.90;;;2.40;99.90;;;;;;5092186;28;20052;-81
2022/01/11 02:06:14;;;;;;;41.85;17.85;;;2.50;99.90;;;;;;5092864;28;20036;-81
2022/01/11 02:08:42;;;;;;;47.08;18.08;;;2.50;99.90;;;;;;5092695;28;20084;-81
2022/01/11 02:11:08;;;;;;;40.38;19.13;;;2.40;99.90;;;;;;5092806;28;20127;-81
2022/01/11 02:13:34;;;;;;;38.45;18.58;;;2.40;99.90;;;;;;5092577;28;20044;-81
2022/01/11 02:16:01;;;;;;;38.80;18.77;;;2.60;99.90;;;;;;5092631;28;20105;-82
2022/01/11 02:18:27;;;;;;;39.53;19.58;;;2.80;99.90;;;;;;5092567;28;20052;-82
2022/01/11 02:20:58;;;;;;;35.85;18.20;;;2.80;99.90;;;;;;5075685;28;20138;-81
2022/01/11 02:23:27;;;;;;;34.05;17.45;;;2.70;99.90;;;;;;5092800;28;20090;-81
2022/01/11 02:25:53;;;;;;;35.50;16.70;;;2.70;99.90;;;;;;5092377;28;20535;-81
2022/01/11 02:28:21;;;;;;;35.20;17.73;;;2.70;99.90;;;;;;5092388;28;20121;-81
2022/01/11 02:30:48;;;;;;;38.10;17.30;;;2.60;99.90;;;;;;5092402;28;20395;-81
2022/01/11 02:33:32;;;;;;;54.45;19.92;;;2.50;99.90;;;;;;5075019;28;20087;-82
2022/01/11 02:35:58;;;;;;;40.08;19.13;;;2.60;99.90;;;;;;5092478;28;20052;-81
2022/01/11 02:38:23;;;;;;;51.88;21.58;;;2.70;99.90;;;;;;5092002;28;20127;-81
2022/01/11 02:40:49;;;;;;;41.03;18.80;;;2.60;99.90;;;;;;5092289;28;20131;-81
2022/01/11 02:43:15;;;;;;;49.33;19.95;;;2.70;99.90;;;;;;5092286;28;20052;-81
2022/01/11 02:45:41;;;;;;;52.28;20.38;;;2.70;99.90;;;;;;5091625;28;20395;-81
2022/01/11 02:48:07;;;;;;;46.53;19.73;;;2.70;99.90;;;;;;5092230;28;20075;-81
2022/01/11 02:50:33;;;;;;;43.58;19.60;;;2.80;99.90;;;;;;5092157;28;20044;-81
2022/01/11 02:52:59;;;;;;;47.78;20.10;;;2.80;99.90;;;;;;5096168;28;20055;-82
2022/01/11 02:55:25;;;;;;;43.40;19.10;;;2.90;99.90;;;;;;5096521;28;20052;-81
2022/01/11 02:57:50;;;;;;;39.95;19.52;;;2.90;99.90;;;;;;5079747;28;20490;-81
2022/01/11 03:00:19;;;;;;;46.88;20.40;;;2.80;99.90;;;;;;5095881;28;20044;-81
2022/01/11 03:02:46;;;;;;;45.55;19.65;;;2.80;99.90;;;;;;5095220;28;20036;-82
2022/01/11 03:05:13;;;;;;;44.53;18.90;;;2.80;99.90;;;;;;5095816;28;20601;-82
2022/01/11 03:07:41;;;;;;;47.92;20.17;;;2.90;99.90;;;;;;5096180;28;20498;-82
2022/01/11 03:10:20;;;;;;;53.47;21.45;;;2.90;99.90;;;;;;5095541;28;20054;-82
2022/01/11 03:12:47;;;;;;;49.00;21.65;;;2.90;99.90;;;;;;5078390;28;20487;-82
2022/01/11 03:15:13;;;;;;;48.05;21.83;;;3.00;99.90;;;;;;5095417;28;20048;-83
2022/01/11 03:17:39;;;;;;;55.42;22.20;;;3.10;99.90;;;;;;5095398;28;20091;-82
2022/01/11 03:20:06;;;;;;;67.95;23.95;;;2.90;99.90;;;;;;5095459;28;20083;-82
2022/01/11 03:22:32;;;;;;;46.83;20.80;;;3.00;99.90;;;;;;5095012;28;20464;-82
2022/01/11 03:24:58;;;;;;;58.10;22.55;;;3.00;99.90;;;;;;5095077;28;20048;-82
2022/01/11 03:27:24;;;;;;;52.53;22.20;;;3.10;99.90;;;;;;5095256;28;20055;-82
2022/01/11 03:29:52;;;;;;;59.05;23.25;;;3.20;99.90;;;;;;5095700;28;20093;-82
2022/01/11 03:32:19;;;;;;;75.13;26.27;;;3.20;99.90;;;;;;5095343;28;20055;-82
2022/01/11 03:34:45;;;;;;;49.60;21.27;;;3.30;99.90;;;;;;5078202;28;20130;-82
2022/01/11 03:37:17;;;;;;;51.92;21.33;;;3.30;99.90;;;;;;5095070;28;20131;-82
2022/01/11 03:39:47;;;;;;;55.40;22.55;;;3.20;99.90;;;;;;5095188;28;20135;-82
2022/01/11 03:42:14;;;;;;;53.92;22.67;;;3.20;99.90;;;;;;5078281;28;20142;-82
2022/01/11 03:44:40;;;;;;;53.92;23.05;;;3.20;99.90;;;;;;5078015;28;20150;-82
2022/01/11 03:47:06;;;;;;;70.18;24.80;;;3.10;99.90;;;;;;5077963;28;20536;-82
2022/01/11 03:49:32;;;;;;;56.35;22.40;;;3.00;99.90;;;;;;5094863;28;20113;-82
2022/01/11 03:51:57;;;;;;;56.15;22.52;;;3.10;99.90;;;;;;5078064;28;20049;-82
2022/01/11 03:54:27;;;;;;;95.20;28.60;;;3.10;99.90;;;;;;5094735;28;20052;-82
2022/01/11 03:56:53;;;;;;;58.40;22.67;;;2.90;99.90;;;;;;5094628;28;20491;-82
2022/01/11 03:59:19;;;;;;;64.30;24.33;;;3.00;99.90;;;;;;5077452;28;20067;-82
2022/01/11 04:01:46;;;;;;;58.90;23.45;;;3.00;99.90;;;;;;5094323;28;20062;-82
2022/01/11 04:04:12;;;;;;;78.05;25.25;;;3.00;99.90;;;;;;5095105;28;20048;-82
2022/01/11 04:06:38;;;;;;;53.60;21.98;;;3.10;99.90;;;;;;5078258;28;20201;-82
2022/01/11 04:09:05;;;;;;;59.85;21.92;;;3.20;99.90;;;;;;5094552;28;20084;-82
2022/01/11 04:11:31;;;;;;;61.90;24.63;;;3.10;99.90;;;;;;5094536;28;20106;-82
2022/01/11 04:13:57;;;;;;;56.28;22.85;;;3.20;99.90;;;;;;5094382;28;20495;-82
2022/01/11 04:16:23;;;;;;;57.22;21.92;;;3.30;99.90;;;;;;5094624;28;20051;-83
2022/01/11 04:18:49;;;;;;;68.32;23.67;;;3.20;99.90;;;;;;5077970;28;20055;-83
2022/01/11 04:21:15;;;;;;;66.93;24.60;;;3.10;99.90;;;;;;5094544;28;20051;-82
2022/01/11 04:23:40;;;;;;;62.00;23.35;;;3.00;99.90;;;;;;5094032;28;20039;-82
2022/01/11 04:26:06;;;;;;;76.97;25.38;;;3.00;99.90;;;;;;5077579;28;20107;-82
2022/01/11 04:28:32;;;;;;;57.05;22.52;;;3.00;99.90;;;;;;5077101;28;20048;-82
2022/01/11 04:30:59;;;;;;;62.25;22.52;;;2.90;99.90;;;;;;5093733;28;20113;-82
2022/01/11 04:33:27;;;;;;;62.20;23.20;;;2.80;99.90;;;;;;5093899;28;20056;-82
2022/01/11 04:35:53;;;;;;;66.18;25.42;;;2.80;99.90;;;;;;5094691;28;20086;-82
2022/01/11 04:38:21;;;;;;;62.63;22.35;;;2.70;99.90;;;;;;5094389;28;20083;-82
2022/01/11 04:40:46;;;;;;;52.95;22.45;;;2.70;99.90;;;;;;5093769;28;20087;-83
2022/01/11 04:43:12;;;;;;;52.95;21.75;;;2.70;99.90;;;;;;5061758;28;20043;-82
2022/01/11 04:45:38;;;;;;;68.18;23.52;;;2.60;99.90;;;;;;5076991;28;20051;-82
2022/01/11 04:48:05;;;;;;;50.17;21.55;;;2.70;99.90;;;;;;5076805;28;20044;-82
2022/01/11 04:50:30;;;;;;;56.25;20.98;;;2.80;99.90;;;;;;5093616;28;20043;-82
2022/01/11 04:52:57;;;;;;;54.65;20.80;;;2.70;99.90;;;;;;5093475;28;20039;-82
2022/01/11 04:55:23;;;;;;;56.60;21.88;;;2.70;99.90;;;;;;5076668;28;20051;-82
2022/01/11 04:57:49;;;;;;;62.25;22.27;;;2.70;99.90;;;;;;5077221;28;20059;-82
2022/01/11 05:00:17;;;;;;;60.92;22.58;;;2.70;99.90;;;;;;5061129;28;20436;-82
2022/01/11 05:02:43;;;;;;;52.70;21.70;;;2.80;99.90;;;;;;5070954;28;20052;-82
2022/01/11 05:05:09;;;;;;;55.17;21.88;;;2.70;99.90;;;;;;5056351;28;20045;-82
2022/01/11 05:07:35;;;;;;;46.92;20.27;;;2.70;99.90;;;;;;5056156;28;20127;-82
2022/01/11 05:10:00;;;;;;;58.35;22.08;;;2.80;99.90;;;;;;5090036;28;20128;-82
2022/01/11 05:12:26;;;;;;;56.92;20.63;;;2.70;99.90;;;;;;5072879;28;20102;-82
2022/01/11 05:14:52;;;;;;;71.10;23.85;;;2.50;99.90;;;;;;5072570;28;20052;-82
2022/01/11 05:17:18;;;;;;;51.97;21.77;;;2.50;99.90;;;;;;5072960;28;20036;-83
2022/01/11 05:19:43;;;;;;;54.22;22.83;;;2.70;99.90;;;;;;5057126;28;20040;-82
2022/01/11 05:22:09;;;;;;;71.88;25.70;;;2.50;99.90;;;;;;5072895;28;20093;-82
2022/01/11 05:24:35;;;;;;;55.47;21.63;;;2.60;99.90;;;;;;5056101;28;20044;-82
2022/01/11 05:27:00;;;;;;;57.92;21.63;;;2.60;99.90;;;;;;5072853;28;20094;-82
2022/01/11 05:29:26;;;;;;;70.35;24.15;;;2.50;99.90;;;;;;5072830;28;20041;-82
2022/01/11 05:31:52;;;;;;;51.92;21.30;;;2.60;99.90;;;;;;5055351;28;20487;-82
2022/01/11 05:34:18;;;;;;;51.03;20.50;;;2.60;99.90;;;;;;5072647;28;20044;-83
2022/01/11 05:36:43;;;;;;;48.72;20.73;;;2.60;99.90;;;;;;5056555;28;20505;-82
2022/01/11 05:39:09;;;;;;;54.67;21.02;;;2.70;99.90;;;;;;5106495;28;20131;-82
2022/01/11 05:41:35;;;;;;;68.93;25.15;;;2.80;99.90;;;;;;5056789;28;20048;-82
2022/01/11 05:44:00;;;;;;;52.85;21.80;;;2.80;99.90;;;;;;5072888;28;20120;-82
2022/01/11 05:46:26;;;;;;;54.13;21.50;;;2.80;99.90;;;;;;5055303;28;20067;-82
2022/01/11 05:48:52;;;;;;;59.17;22.33;;;2.90;99.90;;;;;;5072583;28;20063;-82
2022/01/11 05:51:18;;;;;;;52.15;21.58;;;2.80;99.90;;;;;;5072307;28;20086;-82
2022/01/11 05:53:44;;;;;;;56.88;23.55;;;2.80;99.90;;;;;;5073064;28;20049;-82
2022/01/11 05:56:10;;;;;;;51.13;21.17;;;2.80;99.90;;;;;;5056674;28;20056;-82
2022/01/11 05:58:36;;;;;;;65.15;23.92;;;2.80;99.90;;;;;;5073549;28;20040;-82
2022/01/11 06:01:03;;;;;;;56.63;21.90;;;2.80;99.90;;;;;;5073325;28;20094;-82
2022/01/11 06:03:28;;;;;;;52.25;20.65;;;2.80;99.90;;;;;;5056260;28;20045;-82
2022/01/11 06:05:54;;;;;;;59.85;20.85;;;2.90;99.90;;;;;;5055842;28;20047;-82
2022/01/11 06:08:20;;;;;;;49.33;19.67;;;2.80;99.90;;;;;;5055803;28;20526;-82
2022/01/11 06:10:46;;;;;;;48.85;20.15;;;2.80;99.90;;;;;;5072737;28;20084;-82
2022/01/11 06:13:12;;;;;;;53.63;20.98;;;2.70;99.90;;;;;;5055665;28;20052;-82
2022/01/11 06:15:38;;;;;;;52.10;21.33;;;2.80;99.90;;;;;;5072255;28;20049;-82
2022/01/11 06:18:05;;;;;;;48.97;21.50;;;2.70;99.90;;;;;;5072806;28;20043;-82
2022/01/11 06:20:31;;;;;;;50.47;20.60;;;2.70;99.90;;;;;;5055780;28;20053;-82
2022/01/11 06:22:57;;;;;;;44.90;19.35;;;2.70;99.90;;;;;;5072268;28;20041;-82
2022/01/11 06:25:23;;;;;;;62.13;21.40;;;2.70;99.90;;;;;;5071916;28;20174;-82
2022/01/11 06:27:49;;;;;;;50.95;19.30;;;2.80;99.90;;;;;;5058845;28;20444;-82
2022/01/11 06:30:16;;;;;;;49.47;20.63;;;2.90;99.90;;;;;;5059753;28;20104;-82
2022/01/11 06:32:45;;;;;;;52.78;19.83;;;2.80;99.90;;;;;;5058792;28;20048;-82
2022/01/11 06:35:13;;;;;;;54.90;21.55;;;2.80;99.90;;;;;;5075875;28;20044;-82
2022/01/11 06:37:39;;;;;;;53.20;20.52;;;2.80;99.90;;;;;;5059258;28;20048;-82
2022/01/11 06:40:05;;;;;;;54.30;21.25;;;2.70;99.90;;;;;;5059284;28;20055;-82
2022/01/11 06:42:32;;;;;;;53.15;21.20;;;2.70;99.90;;;;;;5075856;28;20070;-82
2022/01/11 06:44:57;;;;;;;62.67;22.40;;;2.70;99.90;;;;;;5058448;28;20052;-82
2022/01/11 06:47:23;;;;;;;51.33;21.30;;;2.80;99.90;;;;;;5075463;28;20063;-82
2022/01/11 06:49:49;;;;;;;56.22;21.48;;;2.70;99.90;;;;;;5075662;28;20044;-82
2022/01/11 06:52:15;;;;;;;61.22;20.98;;;2.80;99.90;;;;;;5058993;28;20139;-82
2022/01/11 06:54:41;;;;;;;52.47;21.02;;;2.60;99.90;;;;;;5059294;28;20097;-82
2022/01/11 06:57:08;;;;;;;60.28;21.23;;;2.50;99.90;;;;;;5075584;28;20099;-82
2022/01/11 06:59:37;;;;;;;54.72;22.05;;;2.60;99.90;;;;;;5075569;28;20083;-82
2022/01/11 07:02:06;;;;;;;59.45;20.45;;;2.50;99.90;;;;;;5075007;28;20040;-82
2022/01/11 07:04:33;;;;;;;49.92;19.10;;;2.50;99.90;;;;;;5075281;28;20055;-82
2022/01/11 07:06:59;;;;;;;57.47;21.08;;;2.50;99.90;;;;;;5058854;28;20082;-82
2022/01/11 07:09:25;;;;;;;55.65;20.73;;;2.40;99.90;;;;;;5058730;28;20045;-82
2022/01/11 07:11:51;;;;;;;54.35;21.13;;;2.40;99.90;;;;;;5058638;28;20040;-82
2022/01/11 07:14:17;;;;;;;58.00;21.67;;;2.40;99.90;;;;;;5075358;28;20548;-82
2022/01/11 07:16:48;;;;;;;60.88;22.27;;;2.40;99.90;;;;;;5058410;28;20155;-82
2022/01/11 07:19:15;;;;;;;53.67;21.15;;;2.40;99.90;;;;;;5075474;28;20414;-82
2022/01/11 07:21:41;;;;;;;55.67;21.02;;;2.30;99.90;;;;;;5058718;28;20040;-82
2022/01/11 07:24:07;;;;;;;56.15;20.55;;;2.30;99.90;;;;;;5074837;28;20055;-82
2022/01/11 07:26:34;;;;;;;64.45;22.23;;;2.40;99.90;;;;;;5092169;28;20057;-82
2022/01/11 07:28:59;;;;;;;59.30;22.15;;;2.40;99.90;;;;;;5058954;28;20048;-82
2022/01/11 07:31:25;;;;;;;56.30;21.20;;;2.50;99.90;;;;;;5058312;28;20056;-82
2022/01/11 07:33:50;;;;;;;61.22;22.42;;;2.40;99.90;;;;;;5074505;28;20392;-82
2022/01/11 07:36:16;;;;;;;56.50;20.67;;;2.50;99.90;;;;;;5075239;28;20525;-82
2022/01/11 07:38:42;;;;;;;63.08;22.90;;;2.40;99.90;;;;;;5057656;28;20045;-82
2022/01/11 07:41:07;;;;;;;59.95;23.75;;;2.50;99.90;;;;;;5074736;28;20048;-82
2022/01/11 07:43:33;;;;;;;58.28;20.42;;;2.50;99.90;;;;;;5074704;28;20047;-82
2022/01/11 07:45:59;;;;;;;75.72;25.20;;;2.50;99.90;;;;;;5074030;28;20045;-82
2022/01/11 07:48:25;;;;;;;65.88;22.70;;;2.50;99.90;;;;;;5058048;28;20046;-82
2022/01/11 07:50:50;;;;;;;56.90;20.60;;;2.40;99.90;;;;;;5057988;28;20132;-82
2022/01/11 07:53:16;;;;;;;71.47;24.67;;;2.10;99.90;;;;;;5074605;28;20044;-82
2022/01/11 07:55:42;;;;;;;60.15;22.17;;;2.20;99.90;;;;;;5058138;28;20083;-82
2022/01/11 07:58:08;;;;;;;59.95;21.88;;;2.10;99.90;;;;;;5074158;28;20080;-82
2022/01/11 08:00:33;;;;;;;58.47;21.35;;;2.10;99.90;;;;;;5074393;28;20415;-82
2022/01/11 08:02:59;;;;;;;63.85;23.10;;;2.00;99.90;;;;;;5074006;28;20048;-82
2022/01/11 08:05:24;;;;;;;63.88;21.77;;;2.10;99.90;;;;;;5074147;28;20093;-82
2022/01/11 08:07:50;;;;;;;69.32;23.17;;;2.30;99.90;;;;;;5073990;28;20045;-82
2022/01/11 08:10:18;;;;;;;70.28;23.65;;;2.40;99.90;;;;;;5057596;28;20055;-82
2022/01/11 08:12:45;;;;;;;66.53;23.02;;;2.20;99.90;;;;;;5074056;28;20040;-82
2022/01/11 08:15:12;;;;;;;70.55;22.63;;;2.30;99.90;;;;;;5057457;28;20044;-82
2022/01/11 08:17:39;;;;;;;60.03;22.02;;;2.40;99.90;;;;;;5074111;28;20453;-83
2022/01/11 08:20:06;;;;;;;63.30;22.70;;;2.40;99.90;;;;;;5073951;28;20051;-82
2022/01/11 08:22:31;;;;;;;70.32;24.42;;;2.40;99.90;;;;;;5073861;28;20273;-82
2022/01/11 08:24:57;;;;;;;63.30;23.48;;;2.40;99.90;;;;;;5073807;28;20048;-76
2022/01/11 08:27:23;;;;;;;71.47;23.65;;;2.50;99.90;;;;;;5073752;28;20045;-78
2022/01/11 08:29:50;;;;;;;68.13;23.33;;;2.30;99.90;;;;;;5074134;28;20539;-78
2022/01/11 08:32:16;;;;;;;65.47;23.05;;;2.30;99.90;;;;;;5056584;28;20050;-78
2022/01/11 08:34:43;;;;;;;57.85;22.42;;;2.30;99.90;;;;;;5073264;28;20063;-78
2022/01/11 08:37:09;;;;;;;69.45;22.33;;;2.50;99.90;;;;;;5073685;28;20052;-79
2022/01/11 08:39:35;;;;;;;65.95;22.98;;;2.40;99.90;;;;;;5074185;28;20047;-78
2022/01/11 08:42:01;;;;;;;64.50;24.50;;;2.50;99.90;;;;;;5073643;28;20049;-78
2022/01/11 08:44:27;;;;;;;57.90;22.02;;;2.40;99.90;;;;;;5073228;28;20041;-78
2022/01/11 08:46:54;;;;;;;75.78;24.63;;;2.30;99.90;;;;;;5072748;28;20138;-79
2022/01/11 08:49:21;;;;;;;69.35;23.45;;;2.20;99.90;;;;;;5072734;28;20080;-78
2022/01/11 08:51:47;;;;;;;64.45;22.77;;;2.30;99.90;;;;;;5056891;28;20052;-76
2022/01/11 08:54:14;;;;;;;63.83;22.42;;;2.30;99.90;;;;;;5073218;28;20109;-76
2022/01/11 08:56:41;;;;;;;58.47;22.00;;;2.30;99.90;;;;;;5072958;28;20044;-76
2022/01/11 08:59:07;;;;;;;63.38;23.05;;;2.30;99.90;;;;;;5073344;28;20063;-74
2022/01/11 09:01:34;;;;;;;59.53;22.15;;;2.30;99.90;;;;;;5108701;28;20037;-76
2022/01/11 09:04:01;;;;;;;59.33;23.13;;;2.30;99.90;;;;;;5078613;28;20517;-77
2022/01/11 09:06:26;;;;;;;62.17;22.58;;;2.60;99.90;;;;;;5057107;28;20075;-70
2022/01/11 09:08:52;;;;;;;51.90;20.13;;;2.80;99.90;;;;;;5074309;28;20515;-75
2022/01/11 09:11:18;;;;;;;57.42;20.08;;;2.70;99.90;;;;;;5072774;28;20053;-74
2022/01/11 09:13:45;;;;;;;54.72;20.40;;;2.70;99.90;;;;;;5073028;28;20051;-75
2022/01/11 09:16:13;;;;;;;56.08;19.20;;;2.80;99.90;;;;;;5072949;28;20044;-75
2022/01/11 09:18:39;;;;;;;49.70;19.75;;;2.50;99.90;;;;;;5072988;28;20053;-75
2022/01/11 09:21:05;;;;;;;55.90;19.05;;;2.50;99.90;;;;;;5072833;28;20070;-74
2022/01/11 09:23:31;;;;;;;58.47;20.20;;;2.50;99.90;;;;;;5072838;28;20109;-75
2022/01/11 09:25:58;;;;;;;44.10;17.00;;;2.40;99.90;;;;;;5072561;28;20052;-75
2022/01/11 09:28:24;;;;;;;49.67;18.25;;;2.50;99.90;;;;;;5073116;28;20037;-75
2022/01/11 09:30:51;;;;;;;49.63;18.02;;;2.40;99.90;;;;;;5072550;28;20403;-75
2022/01/11 09:33:17;;;;;;;43.20;17.90;;;2.30;99.90;;;;;;5040345;28;20599;-74
2022/01/11 09:35:43;;;;;;;43.97;16.70;;;2.30;99.90;;;;;;5073591;28;20090;-76
2022/01/11 09:38:09;;;;;;;48.72;17.02;;;2.40;99.90;;;;;;5072698;28;20090;-75
2022/01/11 09:40:35;;;;;;;44.38;16.45;;;2.40;99.90;;;;;;5072702;28;20044;-75
2022/01/11 09:43:01;;;;;;;44.95;16.98;;;2.50;99.90;;;;;;5072758;28;20044;-75
2022/01/11 09:45:27;;;;;;;49.95;17.02;;;2.50;99.90;;;;;;5072173;28;20048;-76
2022/01/11 09:47:52;;;;;;;39.28;16.05;;;2.40;99.90;;;;;;5072569;28;20063;-75
2022/01/11 09:50:19;;;;;;;40.15;16.42;;;2.40;99.90;;;;;;5072710;28;20117;-75
2022/01/11 09:52:45;;;;;;;38.97;15.10;;;2.50;99.90;;;;;;5072573;28;20438;-75
2022/01/11 09:55:14;;;;;;;45.33;15.98;;;2.60;99.90;;;;;;5072522;28;20048;-74
2022/01/11 09:57:41;;;;;;;36.30;15.18;;;2.70;99.90;;;;;;5072782;28;20395;-75
2022/01/11 10:00:09;;;;;;;34.92;15.35;;;2.60;99.90;;;;;;5073048;28;20083;-75
2022/01/11 10:02:35;;;;;;;33.53;14.90;;;2.70;99.90;;;;;;5076054;28;20472;-75
2022/01/11 10:05:05;;;;;;;38.58;15.18;;;2.70;99.90;;;;;;5076301;28;20045;-75
2022/01/11 10:07:40;;;;;;;33.72;15.23;;;2.50;99.90;;;;;;5076753;28;20041;-76
2022/01/11 10:10:14;;;;;;;33.15;15.00;;;2.40;99.90;;;;;;5076671;28;20052;-75
2022/01/11 10:12:48;;;;;;;34.22;15.15;;;2.40;99.90;;;;;;5076702;28;20163;-75
2022/01/11 10:15:14;;;;;;;36.42;15.75;;;2.60;99.90;;;;;;5076590;28;20053;-76
2022/01/11 10:17:43;;;;;;;37.97;15.77;;;2.70;99.90;;;;;;5078575;28;20049;-75
2022/01/11 10:20:20;;;;;;;32.13;13.57;;;2.90;99.90;;;;;;5075877;28;20087;-75
2022/01/11 10:23:01;;;;;;;40.35;16.52;;;2.80;99.90;;;;;;5076483;28;20048;-75
2022/01/11 10:25:40;;;;;;;35.08;14.60;;;2.90;99.90;;;;;;5059333;28;20432;-75
2022/01/11 10:28:06;;;;;;;34.28;14.63;;;3.00;99.90;;;;;;5075826;28;20484;-75
2022/01/11 10:30:34;;;;;;;29.70;14.55;;;3.00;99.90;;;;;;5076074;28;20056;-75
2022/01/11 10:33:06;;;;;;;32.88;14.80;;;2.90;99.90;;;;;;5075489;28;20131;-75
2022/01/11 10:35:44;;;;;;;38.42;16.42;;;2.90;99.90;;;;;;5075677;28;20526;-75
2022/01/11 10:38:11;;;;;;;32.28;15.07;;;2.90;99.90;;;;;;5059440;28;20048;-75
2022/01/11 10:40:43;;;;;;;34.85;15.18;;;2.80;99.90;;;;;;5109775;28;20049;-74
2022/01/11 10:43:16;;;;;;;33.28;14.75;;;3.10;99.90;;;;;;5074459;28;20048;-74
2022/01/11 10:45:53;;;;;;;29.95;14.93;;;3.10;99.90;;;;;;5065813;28;20534;-74
2022/01/11 10:48:23;;;;;;;35.90;15.57;;;3.00;99.90;;;;;;5095321;28;20055;-77
2022/01/11 10:50:56;;;;;;;35.45;14.93;;;3.00;99.90;;;;;;5094847;28;20040;-73
2022/01/11 10:53:24;;;;;;;33.95;15.23;;;2.80;99.90;;;;;;5075873;28;20056;-78
2022/01/11 10:56:01;;;;;;;32.28;14.57;;;2.70;99.90;;;;;;5099200;28;20115;-75
2022/01/11 10:58:28;;;;;;;33.63;14.82;;;2.70;99.90;;;;;;5107761;28;20052;-76
2022/01/11 11:00:56;;;;;;;29.38;13.38;;;2.70;99.90;;;;;;5107102;28;20045;-75
2022/01/11 11:03:29;;;;;;;31.52;14.43;;;2.80;99.90;;;;;;5108882;28;20537;-81
2022/01/11 11:05:58;;;;;;;33.13;14.77;;;3.00;99.90;;;;;;5109083;28;20036;-80
2022/01/11 11:08:38;;;;;;;33.88;14.85;;;2.80;99.90;;;;;;5109695;28;20045;-80
2022/01/11 11:11:07;;;;;;;32.22;14.38;;;3.10;99.90;;;;;;5109475;28;20040;-76
2022/01/11 11:13:38;;;;;;;32.35;14.35;;;3.00;99.90;;;;;;5075671;28;20075;-74
2022/01/11 11:16:26;;;;;;;35.83;15.02;;;3.10;99.90;;;;;;5058430;28;20383;-75
2022/01/11 11:18:57;;;;;;;33.20;14.27;;;3.20;99.90;;;;;;5109465;28;20052;-75
2022/01/11 11:21:36;;;;;;;31.02;14.23;;;3.30;99.90;;;;;;5109359;28;20043;-75
2022/01/11 11:24:14;;;;;;;29.85;13.43;;;3.50;99.90;;;;;;5092220;28;20087;-75
2022/01/11 11:26:47;;;;;;;30.95;14.30;;;3.60;99.90;;;;;;5109218;28;20090;-76
2022/01/11 11:29:13;;;;;;;28.77;13.57;;;3.60;99.90;;;;;;5109198;28;20052;-76
2022/01/11 11:31:39;;;;;;;35.38;14.82;;;4.00;99.90;;;;;;5109547;28;20113;-76
2022/01/11 11:34:08;;;;;;;36.78;15.35;;;4.00;99.90;;;;;;5108541;28;20078;-76
2022/01/11 11:36:35;;;;;;;30.70;14.50;;;4.10;99.90;;;;;;5092221;28;20044;-76
2022/01/11 11:39:11;;;;;;;35.25;15.82;;;4.30;99.90;;;;;;5108903;28;20059;-78
2022/01/11 11:41:40;;;;;;;36.08;15.85;;;4.50;99.90;;;;;;5109011;28;20044;-76
2022/01/11 11:44:16;;;;;;;33.08;15.35;;;4.60;99.90;;;;;;5108587;28;20106;-75
2022/01/11 11:46:53;;;;;;;35.95;15.00;;;4.80;99.90;;;;;;5108036;28;20072;-75
2022/01/11 11:49:55;;;;;;;33.60;14.95;;;4.90;99.80;;;;;;5108994;28;20379;-75
2022/01/11 11:52:21;;;;;;;31.52;14.00;;;5.10;99.90;;;;;;5063769;28;20056;-74
2022/01/11 11:54:48;;;;;;;31.83;14.77;;;4.90;99.70;;;;;;5108965;28;20382;-75
2022/01/11 11:57:16;;;;;;;36.63;17.08;;;4.80;99.90;;;;;;5108442;28;20537;-75
2022/01/11 11:59:54;;;;;;;32.97;14.52;;;4.90;99.90;;;;;;5108589;28;20084;-75
2022/01/11 12:02:33;;;;;;;36.33;15.05;;;4.90;99.90;;;;;;5108215;28;20040;-75
2022/01/11 12:04:59;;;;;;;32.80;14.15;;;5.00;99.90;;;;;;5108087;28;20043;-75
2022/01/11 12:07:38;;;;;;;32.05;15.50;;;5.10;99.90;;;;;;5091264;28;20131;-75
2022/01/11 12:10:06;;;;;;;25.08;12.13;;;5.10;99.80;;;;;;5108498;28;20048;-80
2022/01/11 12:12:49;;;;;;;30.65;12.32;;;5.10;99.90;;;;;;5108075;28;20492;-73
2022/01/11 12:15:21;;;;;;;33.88;15.32;;;5.30;99.90;;;;;;5108203;28;20106;-72
2022/01/11 12:18:07;;;;;;;30.88;14.38;;;5.50;99.90;;;;;;5108086;28;20123;-72
2022/01/11 12:20:43;;;;;;;32.55;14.85;;;5.50;99.80;;;;;;5069658;28;20048;-73
2022/01/11 12:23:10;;;;;;;39.58;16.25;;;5.40;99.60;;;;;;5107829;28;20468;-73
2022/01/11 12:25:43;;;;;;;30.42;13.93;;;5.40;99.70;;;;;;5106885;28;20072;-73
2022/01/11 12:28:21;;;;;;;30.33;13.23;;;5.40;99.40;;;;;;5108125;28;20051;-73
2022/01/11 12:30:47;;;;;;;30.00;13.82;;;5.20;99.50;;;;;;5074891;28;20052;-73
2022/01/11 12:33:22;;;;;;;28.33;13.35;;;5.20;99.50;;;;;;5090296;28;20080;-73
2022/01/11 12:36:04;;;;;;;31.95;14.65;;;5.10;99.60;;;;;;5074751;28;20076;-73
2022/01/11 12:38:33;;;;;;;28.83;13.77;;;5.20;99.90;;;;;;5074903;28;20044;-73
2022/01/11 12:41:37;;;;;;;27.00;14.02;;;5.30;99.80;;;;;;5108486;28;20041;-73